Pagina principale
METAR-TAF:

METAR-TAF

Aeroporti :

Boscombe Down, Inghilterra

latitudine: 51-10N, longitudine: 001-45W, altezza: 124 m

Osservazione

Il bollettino è stato emesso 25 minuti fa, alle 18:50 UTC
Vento 19 kt da sud-ovest con raffiche fino a 29 kt
Temperature 7°C
Umidità 76%
Pressione 999 hPa
Visibilità 10 km o più

METAR: EGDM 161850Z AUTO 23019G29KT 9999 FEW044/// 07/03 Q0999

Ora: 19:15 (19:15 UTC)


TAF: mancante

Osservazioni e previsioni meteorologiche di più di 4000 aeroporti (messaggi METAR e TAF).

Le stazioni disponibili sono rappresentate dai dischi gialli e rossi sulla carta.

Puntare il mouse per vedere il nome della stazione.

Clicca sopra per visualizzare le osservazioni e previsioni meteorologiche.

Per cambiare la mappa : fare clic sui pulsanti verdi con una croce nera per ingrandire, il pulsante verde con un trattino per diminuire, o sulla freccia verde per le mappe adiacenti.


METAR-TAF: